createdAt,value
2022-12-08T00:01:42.773Z,7.53
2022-12-08T00:04:11.529Z,4.68
2022-12-08T00:07:00.798Z,5.53
2022-12-08T00:09:38.571Z,6.70
2022-12-08T00:12:09.308Z,3.92
2022-12-08T00:14:45.283Z,7.75
2022-12-08T00:17:15.578Z,4.78
2022-12-08T00:19:44.211Z,6.70
2022-12-08T00:22:13.188Z,4.53
2022-12-08T00:24:44.680Z,6.88
2022-12-08T00:27:15.088Z,8.35
2022-12-08T00:29:44.706Z,11.52
2022-12-08T00:32:13.183Z,6.75
2022-12-08T00:34:48.823Z,9.55
2022-12-08T00:37:16.747Z,5.40
2022-12-08T00:39:46.071Z,4.68
2022-12-08T00:42:14.056Z,10.48
2022-12-08T00:44:42.550Z,8.52
2022-12-08T00:47:11.255Z,11.43
2022-12-08T00:49:39.395Z,5.22
2022-12-08T00:52:08.835Z,12.50
2022-12-08T00:54:42.367Z,7.88
2022-12-08T00:57:11.668Z,10.32
2022-12-08T00:59:41.520Z,9.85
2022-12-08T01:02:09.435Z,8.30
2022-12-08T01:04:39.890Z,7.97
2022-12-08T01:07:07.781Z,7.90
2022-12-08T01:09:36.008Z,5.35
2022-12-08T01:12:04.043Z,6.70
2022-12-08T01:14:33.469Z,7.15
2022-12-08T01:17:01.548Z,6.68
2022-12-08T01:19:30.736Z,7.95
2022-12-08T01:21:58.786Z,8.25
2022-12-08T01:24:26.979Z,6.53
2022-12-08T01:26:54.992Z,5.82
2022-12-08T01:29:22.883Z,7.45
2022-12-08T01:31:52.299Z,5.63
2022-12-08T01:34:20.176Z,8.20
2022-12-08T01:36:48.247Z,8.35
2022-12-08T01:39:18.619Z,6.45
2022-12-08T01:41:47.622Z,8.50
2022-12-08T01:45:04.361Z,9.32
2022-12-08T01:47:48.392Z,7.60
2022-12-08T01:50:20.034Z,9.05
2022-12-08T01:52:51.165Z,7.82
2022-12-08T01:55:23.917Z,10.95
2022-12-08T01:57:57.186Z,5.68
2022-12-08T02:00:26.096Z,5.53
2022-12-08T02:02:59.814Z,5.15
2022-12-08T02:05:30.418Z,8.70
2022-12-08T02:08:00.034Z,5.78
2022-12-08T02:10:30.893Z,6.88
2022-12-08T02:13:01.280Z,8.55
2022-12-08T02:15:37.815Z,5.30
2022-12-08T02:18:20.533Z,5.38
2022-12-08T02:20:58.098Z,8.15
2022-12-08T02:23:35.574Z,10.10
2022-12-08T02:26:35.077Z,6.13
2022-12-08T02:29:38.201Z,6.85
2022-12-08T02:32:26.042Z,5.53
2022-12-08T02:35:03.970Z,6.03
2022-12-08T02:37:36.223Z,6.63
2022-12-08T02:40:12.729Z,6.65
2022-12-08T02:42:47.858Z,7.75
2022-12-08T02:45:21.480Z,7.57
2022-12-08T02:47:50.388Z,4.97
2022-12-08T02:50:19.842Z,4.07
2022-12-08T02:52:49.080Z,4.93
2022-12-08T02:55:23.994Z,5.65
2022-12-08T02:58:12.403Z,5.78
2022-12-08T03:00:53.028Z,5.38
2022-12-08T03:03:29.239Z,4.75
2022-12-08T03:06:06.920Z,3.03
2022-12-08T03:08:42.209Z,6.20
2022-12-08T03:11:16.202Z,4.93
2022-12-08T03:13:47.337Z,5.13
2022-12-08T03:16:19.262Z,6.13
2022-12-08T03:18:50.717Z,4.30
2022-12-08T03:21:22.748Z,4.65
2022-12-08T03:23:54.519Z,5.05
2022-12-08T03:26:29.989Z,4.35
2022-12-08T03:28:58.740Z,5.05
2022-12-08T03:31:30.609Z,5.05
2022-12-08T03:34:00.429Z,4.82
2022-12-08T03:36:30.101Z,6.35
2022-12-08T03:38:58.018Z,4.07
2022-12-08T03:41:26.062Z,6.85
2022-12-08T03:43:55.391Z,3.90
2022-12-08T03:48:52.822Z,5.05
2022-12-08T03:51:21.121Z,4.13
2022-12-08T03:53:50.990Z,4.00
2022-12-08T03:56:24.538Z,4.18
2022-12-08T03:58:53.448Z,4.57
2022-12-08T04:01:22.101Z,6.30
2022-12-08T04:03:50.598Z,6.13
2022-12-08T04:06:19.088Z,5.20
2022-12-08T04:08:47.577Z,4.03
2022-12-08T04:11:17.217Z,4.93
2022-12-08T04:13:45.617Z,8.20
2022-12-08T04:16:16.934Z,11.07
2022-12-08T04:18:44.938Z,7.40
2022-12-08T04:21:13.232Z,7.53
2022-12-08T04:23:41.455Z,7.32
2022-12-08T04:26:10.194Z,8.18
2022-12-08T04:28:39.586Z,7.00
2022-12-08T04:31:07.972Z,9.45
2022-12-08T04:33:36.173Z,6.70
2022-12-08T04:36:04.300Z,7.65
2022-12-08T04:38:32.566Z,6.82
2022-12-08T04:41:00.542Z,8.30
2022-12-08T04:43:28.516Z,10.23
2022-12-08T04:45:57.942Z,12.68
2022-12-08T04:48:26.314Z,9.20
2022-12-08T04:50:54.247Z,11.75
2022-12-08T04:53:22.442Z,9.27
2022-12-08T04:55:50.363Z,10.07
2022-12-08T04:58:20.609Z,8.35
2022-12-08T05:00:49.511Z,10.02
2022-12-08T05:03:21.443Z,12.30
2022-12-08T05:05:54.733Z,11.85
2022-12-08T05:08:23.082Z,12.23
2022-12-08T05:10:51.085Z,12.80
2022-12-08T05:13:19.063Z,12.55
2022-12-08T05:15:46.971Z,18.83
2022-12-08T05:18:15.736Z,10.93
2022-12-08T05:20:45.344Z,10.45
2022-12-08T05:23:13.357Z,9.73
2022-12-08T05:25:41.529Z,11.40
2022-12-08T05:28:39.657Z,11.43
2022-12-08T05:30:58.088Z,14.55
2022-12-08T05:33:26.182Z,10.40
2022-12-08T05:35:55.648Z,11.38
2022-12-08T05:38:23.829Z,12.65
2022-12-08T05:40:51.813Z,16.45
2022-12-08T05:43:19.710Z,9.88
2022-12-08T05:45:47.851Z,16.02
2022-12-08T05:48:16.191Z,13.40
2022-12-08T05:50:47.755Z,17.35
2022-12-08T05:53:17.506Z,17.83
2022-12-08T05:55:45.768Z,13.02
2022-12-08T05:58:16.915Z,11.85
2022-12-08T06:00:46.527Z,12.85
2022-12-08T06:03:16.430Z,11.52
2022-12-08T06:05:46.384Z,14.40
2022-12-08T06:08:15.105Z,12.27
2022-12-08T06:10:45.909Z,17.60
2022-12-08T06:13:14.765Z,16.98
2022-12-08T06:15:43.122Z,15.00
2022-12-08T06:18:12.267Z,11.13
2022-12-08T06:20:40.282Z,12.60
2022-12-08T06:23:08.378Z,13.40
2022-12-08T06:25:36.284Z,15.63
2022-12-08T06:28:08.582Z,12.27
2022-12-08T06:30:36.708Z,13.27
2022-12-08T06:33:04.847Z,12.68
2022-12-08T06:35:33.155Z,13.20
2022-12-08T06:38:01.229Z,9.85
2022-12-08T06:40:29.432Z,17.17
2022-12-08T06:42:57.517Z,14.60
2022-12-08T06:45:27.174Z,17.27
2022-12-08T06:47:55.295Z,14.65
2022-12-08T06:50:25.796Z,13.65
2022-12-08T06:53:03.127Z,11.38
2022-12-08T06:58:21.538Z,12.73
2022-12-08T07:00:51.247Z,11.00
2022-12-08T07:03:19.346Z,15.52
2022-12-08T07:05:47.675Z,13.88
2022-12-08T07:08:15.820Z,13.02
2022-12-08T07:10:47.197Z,17.13
2022-12-08T07:13:15.878Z,10.45
2022-12-08T07:15:43.823Z,13.45
2022-12-08T07:18:13.144Z,10.75
2022-12-08T07:20:41.319Z,14.88
2022-12-08T07:23:09.229Z,11.75
2022-12-08T07:25:40.250Z,14.55
2022-12-08T07:28:11.959Z,12.27
2022-12-08T07:30:40.355Z,13.98
2022-12-08T07:33:08.365Z,11.70
2022-12-08T07:35:37.860Z,9.55
2022-12-08T07:38:05.810Z,10.90
2022-12-08T07:40:33.880Z,15.57
2022-12-08T07:43:06.346Z,15.77
2022-12-08T07:45:34.358Z,11.15
2022-12-08T07:48:02.284Z,9.20
2022-12-08T07:50:30.217Z,11.68
2022-12-08T07:52:59.541Z,14.48
2022-12-08T07:55:27.824Z,11.30
2022-12-08T07:57:55.930Z,12.60
2022-12-08T08:00:24.149Z,12.68
2022-12-08T08:02:52.092Z,11.75
2022-12-08T08:05:20.666Z,13.18
2022-12-08T08:07:48.684Z,12.50
2022-12-08T08:10:19.245Z,9.68
2022-12-08T08:12:47.599Z,12.27
2022-12-08T08:15:15.660Z,10.02
2022-12-08T08:17:43.640Z,10.30
2022-12-08T08:20:12.519Z,11.95
2022-12-08T08:22:40.444Z,11.85
2022-12-08T08:25:09.206Z,23.85
2022-12-08T08:27:38.547Z,10.52
2022-12-08T08:30:08.573Z,10.63
2022-12-08T08:32:36.925Z,14.15
2022-12-08T08:35:05.801Z,9.45
2022-12-08T08:37:33.840Z,12.27
2022-12-08T08:40:02.265Z,16.92
2022-12-08T08:42:30.396Z,11.13
2022-12-08T08:44:59.904Z,10.88
2022-12-08T08:47:28.003Z,12.10
2022-12-08T08:49:55.957Z,11.20
2022-12-08T08:52:24.096Z,14.25
2022-12-08T08:54:52.059Z,10.48
2022-12-08T08:57:25.325Z,9.60
2022-12-08T08:59:53.959Z,13.30
2022-12-08T09:02:23.426Z,13.70
2022-12-08T09:04:51.437Z,10.27
2022-12-08T09:07:19.702Z,12.02
2022-12-08T09:09:47.883Z,10.80
2022-12-08T09:12:15.988Z,16.50
2022-12-08T09:14:44.012Z,16.35
2022-12-08T09:17:11.951Z,12.00
2022-12-08T09:19:41.517Z,10.85
2022-12-08T09:22:09.518Z,11.57
2022-12-08T09:24:37.492Z,11.32
2022-12-08T09:27:05.581Z,10.70
2022-12-08T09:29:36.251Z,12.43
2022-12-08T09:32:04.764Z,10.48
2022-12-08T09:34:32.868Z,12.60
2022-12-08T09:37:02.342Z,14.48
2022-12-08T09:39:30.390Z,13.15
2022-12-08T09:42:01.661Z,13.50
2022-12-08T09:44:51.652Z,13.35
2022-12-08T09:47:23.199Z,12.68
2022-12-08T09:49:58.172Z,12.68
2022-12-08T09:52:32.423Z,12.45
2022-12-08T09:55:05.509Z,13.25
2022-12-08T09:57:33.451Z,15.82
2022-12-08T10:00:07.081Z,10.02
2022-12-08T10:02:35.388Z,13.52
2022-12-08T10:05:03.361Z,13.05
2022-12-08T10:07:40.182Z,9.40
2022-12-08T10:10:20.959Z,14.65
2022-12-08T10:12:55.176Z,10.63
2022-12-08T10:15:41.377Z,10.60
2022-12-08T10:18:16.864Z,12.30
2022-12-08T10:20:51.220Z,8.13
2022-12-08T10:23:34.354Z,14.07
2022-12-08T10:26:04.529Z,10.82
2022-12-08T10:28:34.121Z,9.98
2022-12-08T10:31:02.295Z,9.32
2022-12-08T10:33:34.116Z,10.10
2022-12-08T10:36:03.160Z,11.27
2022-12-08T10:38:33.888Z,12.65
2022-12-08T10:41:06.023Z,12.20
2022-12-08T10:43:35.257Z,10.38
2022-12-08T10:46:12.360Z,11.10
2022-12-08T10:48:49.946Z,11.48
2022-12-08T10:51:27.765Z,11.15
2022-12-08T10:53:57.747Z,13.10
2022-12-08T10:56:28.670Z,11.15
2022-12-08T10:59:12.821Z,11.43
2022-12-08T11:01:42.103Z,10.30
2022-12-08T11:04:16.610Z,13.65
2022-12-08T11:06:45.253Z,9.98
2022-12-08T11:09:38.287Z,8.63
2022-12-08T11:12:14.625Z,9.07
2022-12-08T11:14:52.002Z,7.22
2022-12-08T11:17:27.359Z,9.98
2022-12-08T11:20:00.560Z,9.98
2022-12-08T11:22:32.969Z,9.10
2022-12-08T11:25:04.825Z,9.82
2022-12-08T11:27:34.667Z,7.78
2022-12-08T11:30:03.693Z,8.85
2022-12-08T11:32:34.639Z,6.95
2022-12-08T11:35:05.270Z,11.98
2022-12-08T11:37:38.595Z,10.40
2022-12-08T11:40:16.393Z,6.78
2022-12-08T11:42:52.985Z,10.18
2022-12-08T11:45:26.610Z,8.77
2022-12-08T11:48:04.907Z,8.18
2022-12-08T11:50:42.852Z,8.00
2022-12-08T11:53:21.361Z,10.70
2022-12-08T11:55:56.381Z,10.73
2022-12-08T12:00:55.825Z,9.02
2022-12-08T12:03:30.393Z,18.95
2022-12-08T12:06:37.645Z,11.32
2022-12-08T12:09:13.572Z,9.95
2022-12-08T12:12:11.747Z,13.25
2022-12-08T12:15:26.860Z,9.80
2022-12-08T12:17:59.196Z,8.68
2022-12-08T12:20:31.880Z,9.32
2022-12-08T12:23:06.134Z,8.60
2022-12-08T12:25:36.061Z,10.38
2022-12-08T12:28:09.259Z,9.70
2022-12-08T12:30:54.469Z,8.38
2022-12-08T12:33:24.467Z,11.43
2022-12-08T12:35:56.346Z,6.80
2022-12-08T12:38:44.807Z,7.18
2022-12-08T12:41:16.359Z,6.15
2022-12-08T12:44:11.514Z,7.63
2022-12-08T12:46:53.334Z,8.40
2022-12-08T12:50:05.743Z,6.32
2022-12-08T12:52:51.512Z,7.20
2022-12-08T12:55:53.803Z,7.85
2022-12-08T12:58:42.554Z,6.97
2022-12-08T13:01:51.644Z,7.00
2022-12-08T13:04:20.172Z,8.43
2022-12-08T13:06:50.877Z,9.48
2022-12-08T13:09:25.316Z,8.65
2022-12-08T13:11:56.820Z,10.48
2022-12-08T13:14:31.178Z,7.43
2022-12-08T13:17:03.510Z,7.93
2022-12-08T13:19:36.343Z,7.05
2022-12-08T13:22:04.533Z,8.68
2022-12-08T13:24:35.739Z,7.93
2022-12-08T13:27:34.119Z,8.30
2022-12-08T13:30:44.393Z,8.90
2022-12-08T13:33:19.137Z,7.40
2022-12-08T13:36:02.563Z,7.10
2022-12-08T13:38:35.441Z,10.70
2022-12-08T13:41:12.859Z,11.07
2022-12-08T13:51:07.004Z,10.15
2022-12-08T13:58:33.292Z,8.98
2022-12-08T14:01:07.067Z,11.52
2022-12-08T14:04:12.396Z,10.98
2022-12-08T14:06:39.482Z,9.18
2022-12-08T14:09:12.506Z,7.40
2022-12-08T14:11:43.418Z,8.18
2022-12-08T14:14:32.760Z,10.50
2022-12-08T14:17:07.489Z,9.80
2022-12-08T14:19:36.751Z,9.25
2022-12-08T14:22:13.030Z,7.97
2022-12-08T14:24:41.835Z,5.90
2022-12-08T14:27:15.836Z,6.35
2022-12-08T14:29:45.756Z,5.70
2022-12-08T14:32:32.771Z,6.40
2022-12-08T14:35:03.298Z,6.68
2022-12-08T14:37:34.795Z,8.05
2022-12-08T14:40:07.909Z,6.97
2022-12-08T14:42:44.438Z,9.27
2022-12-08T14:45:14.922Z,7.70
2022-12-08T14:47:43.405Z,8.38
2022-12-08T14:50:43.645Z,7.45
2022-12-08T14:53:15.887Z,6.63
2022-12-08T14:55:45.681Z,7.30
2022-12-08T14:58:20.739Z,9.98
2022-12-08T15:00:52.147Z,7.95
2022-12-08T15:03:23.437Z,8.50
2022-12-08T15:05:53.561Z,6.90
2022-12-08T15:08:23.305Z,8.13
2022-12-08T15:11:18.775Z,6.60
2022-12-08T15:13:47.913Z,5.30
2022-12-08T15:16:26.500Z,6.28
2022-12-08T15:19:04.266Z,4.80
2022-12-08T15:21:58.041Z,6.00
2022-12-08T15:24:30.563Z,6.55
2022-12-08T15:26:58.887Z,6.72
2022-12-08T15:29:29.895Z,3.47
2022-12-08T15:31:59.716Z,4.65
2022-12-08T15:34:28.029Z,5.72
2022-12-08T15:36:57.862Z,5.25
2022-12-08T15:39:33.226Z,5.22
2022-12-08T15:42:02.456Z,6.25
2022-12-08T15:44:32.501Z,5.43
2022-12-08T15:47:01.070Z,6.05
2022-12-08T15:49:29.223Z,6.00
2022-12-08T15:52:08.091Z,6.32
2022-12-08T15:54:40.697Z,6.25
2022-12-08T15:57:53.037Z,6.78
2022-12-08T16:00:51.282Z,5.88
2022-12-08T16:04:08.926Z,5.97
2022-12-08T16:07:12.949Z,6.40
2022-12-08T16:09:12.406Z,7.43
2022-12-08T16:12:09.435Z,4.88
2022-12-08T16:17:26.996Z,10.25
2022-12-08T16:19:55.246Z,6.18
2022-12-08T16:25:18.857Z,8.50
2022-12-08T16:28:29.498Z,6.60
2022-12-08T16:30:39.822Z,6.15
2022-12-08T16:33:08.012Z,6.65
2022-12-08T16:35:36.144Z,7.32
2022-12-08T16:38:04.593Z,8.10
2022-12-08T16:40:32.835Z,7.47
2022-12-08T16:43:01.463Z,7.95
2022-12-08T16:45:30.706Z,5.53
2022-12-08T16:48:00.503Z,8.07
2022-12-08T16:50:31.364Z,5.75
2022-12-08T16:53:01.758Z,7.82
2022-12-08T16:55:30.257Z,7.75
2022-12-08T16:57:59.483Z,6.38
2022-12-08T17:00:30.715Z,7.15
2022-12-08T17:02:59.110Z,4.60
2022-12-08T17:05:27.763Z,8.50
2022-12-08T17:07:55.984Z,5.47
2022-12-08T17:10:25.841Z,7.57
2022-12-08T17:12:54.203Z,6.22
2022-12-08T17:15:25.529Z,4.90
2022-12-08T17:17:55.535Z,4.28
2022-12-08T17:20:25.584Z,6.65
2022-12-08T17:22:55.178Z,7.22
2022-12-08T17:25:23.157Z,5.10
2022-12-08T17:27:51.612Z,7.35
2022-12-08T17:30:19.655Z,5.97
2022-12-08T17:32:47.652Z,8.35
2022-12-08T17:35:17.051Z,6.68
2022-12-08T17:37:45.059Z,5.57
2022-12-08T17:40:13.318Z,7.15
2022-12-08T17:42:42.234Z,5.90
2022-12-08T17:45:11.133Z,12.25
2022-12-08T17:47:39.235Z,7.72
2022-12-08T17:50:08.553Z,10.65
2022-12-08T17:52:38.583Z,11.75
2022-12-08T17:55:07.934Z,8.27
2022-12-08T17:57:35.953Z,7.68
2022-12-08T18:00:05.389Z,6.85
2022-12-08T18:02:40.045Z,6.70
2022-12-08T18:05:08.669Z,6.20
2022-12-08T18:07:38.171Z,8.82
2022-12-08T18:10:07.499Z,9.30
2022-12-08T18:12:35.662Z,7.78
2022-12-08T18:15:05.012Z,9.20
2022-12-08T18:17:33.031Z,8.70
2022-12-08T18:20:00.975Z,7.28
2022-12-08T18:22:29.051Z,9.52
2022-12-08T18:24:58.661Z,9.40
2022-12-08T18:27:26.725Z,9.40
2022-12-08T18:29:54.741Z,11.15
2022-12-08T18:32:23.689Z,7.85
2022-12-08T18:34:51.863Z,13.65
2022-12-08T18:37:19.932Z,14.60
2022-12-08T18:39:48.061Z,12.35
2022-12-08T18:42:28.185Z,7.63
2022-12-08T18:45:01.577Z,10.05
2022-12-08T18:47:32.217Z,8.02
2022-12-08T18:50:00.443Z,7.80
2022-12-08T18:52:32.362Z,9.50
2022-12-08T18:55:08.247Z,10.18
2022-12-08T18:57:38.969Z,9.00
2022-12-08T19:00:09.086Z,8.90
2022-12-08T19:02:38.315Z,7.70
2022-12-08T19:05:07.636Z,7.40
2022-12-08T19:07:35.861Z,12.52
2022-12-08T19:10:05.441Z,9.57
2022-12-08T19:12:34.035Z,9.07
2022-12-08T19:15:03.923Z,9.50
2022-12-08T19:17:32.197Z,8.35
2022-12-08T19:20:00.219Z,8.32
2022-12-08T19:22:28.169Z,9.88
2022-12-08T19:24:56.155Z,6.75
2022-12-08T19:27:24.261Z,8.82
2022-12-08T19:29:52.250Z,6.75
2022-12-08T19:32:21.585Z,9.68
2022-12-08T19:34:49.560Z,7.28
2022-12-08T19:37:17.555Z,7.25
2022-12-08T19:40:02.861Z,7.78
2022-12-08T19:42:48.571Z,6.00
2022-12-08T19:45:21.349Z,6.97
2022-12-08T19:47:51.089Z,7.53
2022-12-08T19:50:37.939Z,5.70
2022-12-08T19:53:07.130Z,4.43
2022-12-08T19:55:35.526Z,4.80
2022-12-08T19:58:04.466Z,6.40
2022-12-08T20:00:34.494Z,4.30
2022-12-08T20:03:04.687Z,4.20
2022-12-08T20:05:36.752Z,3.85
2022-12-08T20:08:05.140Z,3.85
2022-12-08T20:10:38.104Z,11.13
2022-12-08T20:13:24.387Z,5.35
2022-12-08T20:15:52.747Z,5.20
2022-12-08T20:18:22.493Z,6.18
2022-12-08T20:20:51.625Z,6.82
2022-12-08T20:23:19.689Z,5.65
2022-12-08T20:25:50.256Z,6.15
2022-12-08T20:28:19.351Z,5.03
2022-12-08T20:30:48.996Z,6.05
2022-12-08T20:33:18.352Z,5.15
2022-12-08T20:35:47.961Z,6.22
2022-12-08T20:38:16.097Z,4.82
2022-12-08T20:40:46.998Z,5.72
2022-12-08T20:43:15.758Z,4.57
2022-12-08T20:45:46.240Z,5.25
2022-12-08T20:48:14.428Z,5.57
2022-12-08T20:50:42.595Z,4.75
2022-12-08T20:53:12.124Z,4.78
2022-12-08T20:55:41.618Z,4.63
2022-12-08T20:58:09.680Z,4.75
2022-12-08T21:00:38.771Z,6.43
2022-12-08T21:03:06.913Z,5.22
2022-12-08T21:05:36.198Z,5.32
2022-12-08T21:08:04.406Z,5.65
2022-12-08T21:10:36.867Z,4.95
2022-12-08T21:13:09.038Z,4.70
2022-12-08T21:15:37.549Z,5.75
2022-12-08T21:18:06.002Z,4.30
2022-12-08T21:20:34.993Z,5.75
2022-12-08T21:23:03.210Z,4.78
2022-12-08T21:25:31.229Z,7.47
2022-12-08T21:28:00.754Z,6.30
2022-12-08T21:30:28.937Z,5.75
2022-12-08T21:32:56.970Z,5.60
2022-12-08T21:35:25.198Z,5.68
2022-12-08T21:37:53.288Z,5.57
2022-12-08T21:40:21.373Z,14.15
2022-12-08T21:42:50.466Z,19.92
2022-12-08T21:45:21.627Z,7.22
2022-12-08T21:47:50.676Z,8.68
2022-12-08T21:50:19.649Z,6.15
2022-12-08T21:52:49.994Z,6.40
2022-12-08T21:55:21.512Z,6.38
2022-12-08T21:57:49.605Z,7.03
2022-12-08T22:00:20.654Z,7.07
2022-12-08T22:02:48.944Z,5.60
2022-12-08T22:05:17.152Z,6.05
2022-12-08T22:07:45.345Z,7.10
2022-12-08T22:10:13.735Z,5.97
2022-12-08T22:12:44.730Z,6.15
2022-12-08T22:15:13.387Z,6.47
2022-12-08T22:17:45.023Z,7.78
2022-12-08T22:20:17.207Z,6.63
2022-12-08T22:22:45.959Z,5.45
2022-12-08T22:25:14.168Z,6.15
2022-12-08T22:27:42.608Z,7.28
2022-12-08T22:30:12.054Z,6.25
2022-12-08T22:32:40.393Z,6.80
2022-12-08T22:35:10.827Z,8.90
2022-12-08T22:37:39.268Z,6.05
2022-12-08T22:40:09.060Z,7.18
2022-12-08T22:42:37.474Z,6.10
2022-12-08T22:45:06.245Z,6.18
2022-12-08T22:47:34.567Z,5.72
2022-12-08T22:50:02.755Z,7.80
2022-12-08T22:52:32.206Z,6.50
2022-12-08T22:55:00.260Z,8.70
2022-12-08T22:57:29.292Z,5.85
2022-12-08T22:59:57.258Z,8.07
2022-12-08T23:02:25.431Z,9.73
2022-12-08T23:04:56.809Z,7.40
2022-12-08T23:07:25.156Z,6.40
2022-12-08T23:09:54.584Z,8.63
2022-12-08T23:12:22.501Z,9.48
2022-12-08T23:14:53.504Z,9.23
2022-12-08T23:17:23.361Z,7.38
2022-12-08T23:19:51.453Z,14.32
2022-12-08T23:22:19.406Z,9.25
2022-12-08T23:24:47.590Z,9.05
2022-12-08T23:27:17.008Z,8.90
2022-12-08T23:29:45.315Z,8.23
2022-12-08T23:32:13.615Z,9.75
2022-12-08T23:34:41.785Z,10.05
2022-12-08T23:37:09.760Z,9.15
2022-12-08T23:39:37.745Z,9.75
2022-12-08T23:42:05.822Z,8.40
2022-12-08T23:44:35.263Z,9.73
2022-12-08T23:47:03.301Z,9.55
2022-12-08T23:49:31.576Z,8.30
2022-12-08T23:51:59.734Z,7.22
2022-12-08T23:54:27.683Z,9.30
2022-12-08T23:56:55.912Z,10.35
2022-12-08T23:59:24.066Z,8.40
